Time;durP1;ratioP1;P1;durP2;ratioP2;P2;SDS_P1;SDS_P2;PMS_P1;PMS_P2;Temp;Humidity;BMP_temperature;BMP_pressure;BME280_temperature;BME280_humidity;BME280_pressure;Samples;Min_cycle;Max_cycle;Signal;HPM_P1;HPM_P2
2021/10/19 00:00:23;;;;;;;26.20;21.13;;;;;;;;;;5092867;28;20544;-78
2021/10/19 00:02:51;;;;;;;26.08;23.10;;;;;;;;;;5092541;28;20069;-82
2021/10/19 00:05:17;;;;;;;25.50;22.23;;;;;;;;;;5093250;28;20024;-79
2021/10/19 00:07:43;;;;;;;25.10;21.20;;;;;;;;;;5093360;28;20382;-78
2021/10/19 00:10:11;;;;;;;27.02;22.80;;;;;;;;;;5092296;28;20016;-78
2021/10/19 00:12:38;;;;;;;24.80;21.98;;;;;;;;;;5093188;28;20048;-79
2021/10/19 00:15:05;;;;;;;26.13;22.63;;;;;;;;;;5093541;28;20021;-78
2021/10/19 00:17:31;;;;;;;28.45;24.17;;;;;;;;;;5097572;28;20052;-77
2021/10/19 00:19:58;;;;;;;26.92;22.73;;;;;;;;;;5097304;28;20036;-79
2021/10/19 00:22:28;;;;;;;26.73;21.75;;;;;;;;;;5097538;28;20020;-80
2021/10/19 00:24:54;;;;;;;27.55;21.83;;;;;;;;;;5097352;28;20095;-80
2021/10/19 00:27:28;;;;;;;28.50;25.35;;;;;;;;;;5097180;28;20417;-81
2021/10/19 00:29:56;;;;;;;34.58;22.92;;;;;;;;;;5097118;28;20024;-79
2021/10/19 00:32:22;;;;;;;28.45;23.48;;;;;;;;;;5097149;28;20032;-81
2021/10/19 00:34:48;;;;;;;25.02;21.15;;;;;;;;;;5097150;28;20024;-78
2021/10/19 00:37:14;;;;;;;27.58;23.60;;;;;;;;;;5095966;28;20356;-81
2021/10/19 00:39:40;;;;;;;26.83;22.48;;;;;;;;;;5097254;28;20035;-80
2021/10/19 00:42:06;;;;;;;27.83;23.40;;;;;;;;;;5096995;28;20027;-82
2021/10/19 00:44:33;;;;;;;27.15;22.42;;;;;;;;;;5097282;28;20016;-80
2021/10/19 00:46:59;;;;;;;25.58;22.73;;;;;;;;;;5097218;28;20074;-80
2021/10/19 00:49:25;;;;;;;25.90;23.10;;;;;;;;;;5096769;28;20032;-83
2021/10/19 00:51:52;;;;;;;25.65;22.83;;;;;;;;;;5096935;28;20024;-80
2021/10/19 00:54:18;;;;;;;25.17;21.73;;;;;;;;;;5096734;28;20434;-77
2021/10/19 00:56:44;;;;;;;25.95;21.08;;;;;;;;;;5096855;28;20032;-78
2021/10/19 00:59:10;;;;;;;23.55;20.67;;;;;;;;;;5096605;28;20471;-81
2021/10/19 01:01:37;;;;;;;24.15;21.55;;;;;;;;;;5096793;28;20087;-80
2021/10/19 01:04:03;;;;;;;23.02;20.52;;;;;;;;;;5096731;28;20482;-78
2021/10/19 01:06:31;;;;;;;23.30;19.45;;;;;;;;;;5096645;28;20059;-80
2021/10/19 01:09:00;;;;;;;24.30;20.42;;;;;;;;;;5094992;28;20360;-81
2021/10/19 01:11:26;;;;;;;25.60;22.27;;;;;;;;;;5096449;28;20130;-80
2021/10/19 01:13:52;;;;;;;25.58;21.58;;;;;;;;;;5096233;28;20050;-78
2021/10/19 01:16:18;;;;;;;24.95;22.35;;;;;;;;;;5096335;28;20118;-79
2021/10/19 01:18:44;;;;;;;25.23;22.52;;;;;;;;;;5096041;28;20110;-82
2021/10/19 01:21:11;;;;;;;24.70;21.35;;;;;;;;;;5096435;28;20020;-81
2021/10/19 01:23:42;;;;;;;25.90;22.75;;;;;;;;;;5096216;28;20430;-80
2021/10/19 01:26:10;;;;;;;26.63;22.08;;;;;;;;;;5096045;28;20024;-80
2021/10/19 01:28:42;;;;;;;28.15;21.38;;;;;;;;;;5095960;28;20155;-78
2021/10/19 01:31:11;;;;;;;25.77;21.30;;;;;;;;;;5095680;28;20053;-79
2021/10/19 01:33:38;;;;;;;25.45;21.80;;;;;;;;;;5095957;28;20486;-81
2021/10/19 01:36:05;;;;;;;25.02;21.40;;;;;;;;;;5095846;28;20479;-82
2021/10/19 01:38:33;;;;;;;27.77;21.25;;;;;;;;;;5095805;28;20505;-81
2021/10/19 01:41:00;;;;;;;23.15;19.80;;;;;;;;;;5095905;28;20024;-78
2021/10/19 01:43:27;;;;;;;26.55;21.15;;;;;;;;;;5095913;28;20039;-79
2021/10/19 01:45:55;;;;;;;23.83;20.50;;;;;;;;;;5094493;28;20386;-81
2021/10/19 01:48:21;;;;;;;26.42;21.27;;;;;;;;;;5094513;28;20032;-79
2021/10/19 01:50:47;;;;;;;26.60;22.65;;;;;;;;;;5094208;28;20054;-79
2021/10/19 01:53:14;;;;;;;26.13;21.33;;;;;;;;;;5095471;28;20058;-81
2021/10/19 01:55:41;;;;;;;24.92;21.23;;;;;;;;;;5095511;28;20039;-80
2021/10/19 01:58:29;;;;;;;26.83;22.42;;;;;;;;;;5094285;28;20020;-78
2021/10/19 02:01:06;;;;;;;23.95;21.25;;;;;;;;;;5095243;28;20035;-78
2021/10/19 02:06:51;;;;;;;;;;;;;;;;;;;;;
2021/10/19 02:09:22;;;;;;;27.52;23.17;;;;;;;;;;5095235;28;20026;-82
2021/10/19 02:15:05;;;;;;;;;;;;;;;;;;;;;
2021/10/19 02:17:31;;;;;;;28.42;23.55;;;;;;;;;;5014276;28;20036;-80
2021/10/19 02:20:00;;;;;;;25.85;22.50;;;;;;;;;;5016081;28;20045;-79
2021/10/19 02:22:29;;;;;;;25.25;21.92;;;;;;;;;;5032850;28;20473;-85
2021/10/19 02:24:57;;;;;;;26.65;22.30;;;;;;;;;;5016347;28;20029;-82
2021/10/19 02:27:23;;;;;;;27.60;22.60;;;;;;;;;;5093113;28;20029;-79
2021/10/19 02:29:49;;;;;;;29.25;23.02;;;;;;;;;;5093414;28;20061;-81
2021/10/19 02:32:16;;;;;;;25.73;21.60;;;;;;;;;;5094943;28;20028;-80
2021/10/19 02:34:45;;;;;;;24.42;21.05;;;;;;;;;;5095093;28;20095;-78
2021/10/19 02:37:14;;;;;;;25.67;21.40;;;;;;;;;;5093664;28;20038;-79
2021/10/19 02:39:40;;;;;;;27.52;23.02;;;;;;;;;;5094531;28;20020;-81
2021/10/19 02:42:06;;;;;;;26.58;22.75;;;;;;;;;;5094857;28;20406;-79
2021/10/19 02:44:45;;;;;;;;;;;;;;;;;;;;;
2021/10/19 02:47:11;;;;;;;27.63;21.92;;;;;;;;;;5092395;28;20360;-80
2021/10/19 02:49:37;;;;;;;28.80;22.77;;;;;;;;;;5094728;28;20028;-81
2021/10/19 02:52:04;;;;;;;28.02;22.02;;;;;;;;;;5094678;28;20032;-81
2021/10/19 02:54:34;;;;;;;25.90;22.38;;;;;;;;;;5093045;28;20048;-79
2021/10/19 02:57:02;;;;;;;24.42;21.00;;;;;;;;;;5094279;28;20048;-80
2021/10/19 02:59:31;;;;;;;25.33;21.85;;;;;;;;;;5094327;28;20032;-81
2021/10/19 03:01:57;;;;;;;25.23;22.20;;;;;;;;;;5094316;28;20025;-80
2021/10/19 03:04:27;;;;;;;28.30;22.98;;;;;;;;;;5094340;28;20079;-81
2021/10/19 03:06:56;;;;;;;24.80;22.10;;;;;;;;;;5094337;28;20024;-80
2021/10/19 03:09:31;;;;;;;26.48;22.23;;;;;;;;;;5094079;28;20360;-80
2021/10/19 03:11:57;;;;;;;26.30;23.27;;;;;;;;;;5094076;28;20028;-78
2021/10/19 03:14:24;;;;;;;27.25;22.27;;;;;;;;;;5094097;28;20055;-81
2021/10/19 03:16:50;;;;;;;27.60;21.23;;;;;;;;;;5094128;28;20043;-81
2021/10/19 03:19:16;;;;;;;26.00;20.90;;;;;;;;;;5093804;28;20039;-78
2021/10/19 03:21:44;;;;;;;24.27;19.73;;;;;;;;;;5094124;28;20039;-80
2021/10/19 03:24:10;;;;;;;24.60;21.67;;;;;;;;;;5094065;28;20364;-81
2021/10/19 03:26:36;;;;;;;28.27;24.20;;;;;;;;;;5093701;28;20028;-79
2021/10/19 03:29:02;;;;;;;25.92;21.85;;;;;;;;;;5092595;28;20023;-81
2021/10/19 03:31:34;;;;;;;30.08;23.15;;;;;;;;;;5092314;28;20372;-81
2021/10/19 03:34:03;;;;;;;25.92;21.40;;;;;;;;;;5094123;28;20090;-81
2021/10/19 03:36:29;;;;;;;26.85;22.65;;;;;;;;;;5093943;28;20379;-82
2021/10/19 03:38:55;;;;;;;25.30;21.25;;;;;;;;;;5093818;28;20028;-78
2021/10/19 03:41:24;;;;;;;29.73;21.38;;;;;;;;;;5092649;28;20032;-80
2021/10/19 03:43:50;;;;;;;25.73;20.13;;;;;;;;;;5093971;28;20029;-81
2021/10/19 03:46:16;;;;;;;25.25;20.48;;;;;;;;;;5093828;28;20031;-81
2021/10/19 03:48:42;;;;;;;24.08;20.08;;;;;;;;;;5093720;28;20024;-78
2021/10/19 03:51:10;;;;;;;22.92;18.48;;;;;;;;;;5094250;28;20383;-81
2021/10/19 03:53:37;;;;;;;22.17;18.00;;;;;;;;;;5097780;28;20103;-80
2021/10/19 03:56:04;;;;;;;24.73;20.05;;;;;;;;;;5098123;28;20103;-80
2021/10/19 03:58:30;;;;;;;24.95;19.90;;;;;;;;;;5097868;28;20371;-80
2021/10/19 04:00:56;;;;;;;22.58;20.17;;;;;;;;;;5097776;28;20371;-81
2021/10/19 04:03:22;;;;;;;25.25;20.17;;;;;;;;;;5097694;28;20028;-81
2021/10/19 04:05:48;;;;;;;22.55;18.20;;;;;;;;;;5097860;28;20379;-77
2021/10/19 04:08:14;;;;;;;22.20;19.30;;;;;;;;;;5098132;28;20024;-81
2021/10/19 04:10:40;;;;;;;25.23;19.63;;;;;;;;;;5097515;28;20060;-79
2021/10/19 04:13:07;;;;;;;23.08;19.63;;;;;;;;;;5097745;28;20024;-78
2021/10/19 04:15:33;;;;;;;23.48;19.45;;;;;;;;;;5097663;28;20356;-79
2021/10/19 04:17:59;;;;;;;22.58;20.10;;;;;;;;;;5097053;28;20085;-80
2021/10/19 04:20:25;;;;;;;26.38;20.48;;;;;;;;;;5097486;28;20021;-81
2021/10/19 04:22:51;;;;;;;44.95;36.60;;;;;;;;;;5097343;28;20020;-82
2021/10/19 04:25:18;;;;;;;40.28;30.27;;;;;;;;;;5097216;28;20110;-82
2021/10/19 04:27:46;;;;;;;38.72;30.63;;;;;;;;;;5097179;28;20020;-80
2021/10/19 04:30:14;;;;;;;32.65;25.92;;;;;;;;;;5097150;28;20035;-79
2021/10/19 04:32:40;;;;;;;33.85;25.08;;;;;;;;;;5097358;28;20039;-78
2021/10/19 04:35:06;;;;;;;31.58;26.30;;;;;;;;;;5095874;28;20463;-83
2021/10/19 04:37:32;;;;;;;32.72;25.92;;;;;;;;;;5097408;28;20471;-84
2021/10/19 04:39:59;;;;;;;27.50;23.55;;;;;;;;;;5097881;28;20024;-85
2021/10/19 04:42:29;;;;;;;28.50;23.23;;;;;;;;;;5097541;28;20040;-85
2021/10/19 04:45:00;;;;;;;26.95;23.58;;;;;;;;;;5096133;28;20026;-83
2021/10/19 04:47:34;;;;;;;32.28;25.50;;;;;;;;;;5096111;28;20042;-80
2021/10/19 04:50:03;;;;;;;35.03;26.73;;;;;;;;;;5095917;28;20024;-85
2021/10/19 04:52:29;;;;;;;31.83;26.13;;;;;;;;;;5097105;28;20032;-82
2021/10/19 04:54:56;;;;;;;30.42;22.67;;;;;;;;;;5095614;28;20024;-83
2021/10/19 04:57:24;;;;;;;32.15;25.55;;;;;;;;;;5095957;28;20031;-82
2021/10/19 04:59:56;;;;;;;29.08;22.70;;;;;;;;;;5097630;28;20028;-85
2021/10/19 05:02:28;;;;;;;30.13;24.52;;;;;;;;;;5078874;28;20051;-82
2021/10/19 05:05:14;;;;;;;30.08;24.27;;;;;;;;;;5095282;28;20028;-81
2021/10/19 05:08:01;;;;;;;29.27;24.45;;;;;;;;;;5094924;28;20119;-83
2021/10/19 05:10:27;;;;;;;29.95;23.52;;;;;;;;;;5075879;28;20033;-78
2021/10/19 05:12:53;;;;;;;32.33;23.45;;;;;;;;;;5075974;28;20035;-78
2021/10/19 05:15:22;;;;;;;29.05;22.98;;;;;;;;;;5075923;28;20056;-80
2021/10/19 05:17:48;;;;;;;29.05;22.95;;;;;;;;;;5074429;28;20055;-79
2021/10/19 05:20:15;;;;;;;34.25;22.30;;;;;;;;;;5075771;28;20072;-81
2021/10/19 05:22:41;;;;;;;28.50;21.48;;;;;;;;;;5074378;28;20036;-80
2021/10/19 05:25:07;;;;;;;27.02;22.05;;;;;;;;;;5074087;28;20024;-80
2021/10/19 05:27:34;;;;;;;28.85;22.45;;;;;;;;;;5092962;28;20370;-81
2021/10/19 05:30:07;;;;;;;28.80;23.63;;;;;;;;;;5095534;28;20024;-79
2021/10/19 05:32:33;;;;;;;32.33;24.70;;;;;;;;;;5090875;28;20032;-81
2021/10/19 05:35:26;;;;;;;33.65;26.20;;;;;;;;;;5091717;28;20415;-83
2021/10/19 05:44:07;;;;;;;29.70;22.27;;;;;;;;;;5080433;28;20024;-79
2021/10/19 05:46:36;;;;;;;;;;;;;;;;;;5086145;28;20031;-81
2021/10/19 05:49:09;;;;;;;28.08;22.08;;;;;;;;;;5084545;28;19916;-81
2021/10/19 05:55:19;;;;;;;;;;;;;;;;;;;;;
2021/10/19 05:57:53;;;;;;;26.70;21.50;;;;;;;;;;5071113;28;20024;-79
2021/10/19 06:00:46;;;;;;;;;;;;;;;;;;;;;
2021/10/19 06:06:11;;;;;;;;;;;;;;;;;;;;;
2021/10/19 06:08:55;;;;;;;;;;;;;;;;;;;;;
2021/10/19 06:11:41;;;;;;;32.95;21.25;;;;;;;;;;5091754;28;20488;-82
2021/10/19 06:14:30;;;;;;;26.75;19.17;;;;;;;;;;5092354;28;20448;-79
2021/10/19 06:17:02;;;;;;;24.42;19.42;;;;;;;;;;5090730;28;20035;-79
2021/10/19 06:22:51;;;;;;;;;;;;;;;;;;;;;
2021/10/19 06:25:45;;;;;;;;;;;;;;;;;;;;;
2021/10/19 06:29:11;;;;;;;;;;;;;;;;;;;;;
2021/10/19 06:31:12;;;;;;;19.50;16.15;;;;;;;;;;5084270;28;20035;-81
2021/10/19 06:37:09;;;;;;;24.88;17.25;;;;;;;;;;5071058;28;20492;-80
2021/10/19 06:39:49;;;;;;;24.13;16.42;;;;;;;;;;5077239;28;20028;-82
2021/10/19 06:42:20;;;;;;;23.92;17.90;;;;;;;;;;5091550;28;20779;-80
2021/10/19 06:45:04;;;;;;;28.45;19.80;;;;;;;;;;5092407;28;20471;-80
2021/10/19 06:47:43;;;;;;;;;;;;;;;;;;;;;
2021/10/19 06:50:41;;;;;;;;;;;;;;;;;;;;;
2021/10/19 06:56:08;;;;;;;22.10;15.80;;;;;;;;;;5036036;28;20040;-83
2021/10/19 06:58:54;;;;;;;20.40;16.65;;;;;;;;;;5049606;28;20136;-83
2021/10/19 07:01:39;;;;;;;20.35;15.55;;;;;;;;;;5063991;28;20472;-84
2021/10/19 07:04:37;;;;;;;;;;;;;;;;;;;;;
2021/10/19 07:06:54;;;;;;;16.33;13.02;;;;;;;;;;5088501;28;20126;-81
2021/10/19 07:18:53;;;;;;;16.70;13.27;;;;;;;;;;5029382;28;20049;-83
2021/10/19 07:21:59;;;;;;;;;;;;;;;;;;;;;
2021/10/19 07:24:48;;;;;;;13.27;10.88;;;;;;;;;;5012111;28;20425;-82
2021/10/19 07:27:47;;;;;;;;;;;;;;;;;;;;;
2021/10/19 07:30:33;;;;;;;12.00;10.10;;;;;;;;;;4989879;28;20500;-80
2021/10/19 07:36:00;;;;;;;13.13;10.95;;;;;;;;;;4999849;28;20023;-79
2021/10/19 07:38:37;;;;;;;18.23;11.57;;;;;;;;;;5029231;28;20033;-81
2021/10/19 07:41:42;;;;;;;;;;;;;;;;;;;;;
2021/10/19 07:44:29;;;;;;;14.48;10.55;;;;;;;;;;5027915;28;20033;-82
2021/10/19 07:49:51;;;;;;;13.57;11.40;;;;;;;;;;4968082;28;20270;-81
2021/10/19 07:55:34;;;;;;;11.20;8.85;;;;;;;;;;4951613;28;20034;-80
2021/10/19 07:58:21;;;;;;;16.58;11.38;;;;;;;;;;4970567;28;20036;-80
2021/10/19 08:04:22;;;;;;;11.18;9.05;;;;;;;;;;4963751;28;20149;-79
2021/10/19 08:06:49;;;;;;;11.80;9.07;;;;;;;;;;4977394;28;20038;-81
2021/10/19 08:12:43;;;;;;;10.80;9.00;;;;;;;;;;5004962;28;20029;-80
2021/10/19 08:18:10;;;;;;;10.57;8.00;;;;;;;;;;5006294;28;20516;-80
2021/10/19 08:26:29;;;;;;;;;;;;;;;;;;;;;
2021/10/19 08:29:02;;;;;;;6.53;5.18;;;;;;;;;;5071307;28;20039;-80
2021/10/19 08:31:31;;;;;;;8.48;6.85;;;;;;;;;;5076481;28;20040;-79
2021/10/19 08:33:58;;;;;;;8.38;6.30;;;;;;;;;;5080205;28;20027;-80
2021/10/19 08:36:24;;;;;;;8.13;6.72;;;;;;;;;;5091607;28;20091;-78
2021/10/19 08:38:50;;;;;;;7.97;6.90;;;;;;;;;;5093737;28;20070;-80
2021/10/19 08:41:26;;;;;;;8.20;7.20;;;;;;;;;;5094706;28;20060;-78
2021/10/19 08:43:55;;;;;;;7.10;5.85;;;;;;;;;;5095105;28;20028;-79
2021/10/19 08:46:24;;;;;;;10.98;5.88;;;;;;;;;;5093718;28;20055;-79
2021/10/19 08:52:16;;;;;;;9.00;6.18;;;;;;;;;;5033653;28;20087;-79
2021/10/19 08:58:01;;;;;;;;;;;;;;;;;;;;;
2021/10/19 09:00:30;;;;;;;8.45;6.03;;;;;;;;;;5078491;28;20145;-78
2021/10/19 09:03:29;;;;;;;;;;;;;;;;;;;;;
2021/10/19 09:06:35;;;;;;;;;;;;;;;;;;;;;
2021/10/19 09:12:33;;;;;;;7.85;6.75;;;;;;;;;;5048313;28;20041;-79
2021/10/19 09:15:09;;;;;;;8.10;5.95;;;;;;;;;;5033964;28;20025;-83
2021/10/19 09:17:40;;;;;;;6.82;5.55;;;;;;;;;;5064596;28;20059;-80
2021/10/19 09:20:16;;;;;;;8.35;5.50;;;;;;;;;;5074142;28;20629;-78
2021/10/19 09:23:12;;;;;;;7.00;6.07;;;;;;;;;;5072633;28;20178;-78
2021/10/19 09:25:40;;;;;;;6.82;5.35;;;;;;;;;;5074174;28;20032;-80
2021/10/19 09:28:08;;;;;;;4.55;4.10;;;;;;;;;;5074129;28;20103;-77
2021/10/19 09:30:53;;;;;;;7.28;5.13;;;;;;;;;;5073937;28;20108;-78
2021/10/19 09:33:24;;;;;;;8.70;5.97;;;;;;;;;;5083686;28;20016;-80
2021/10/19 09:35:59;;;;;;;10.95;5.32;;;;;;;;;;5093938;28;20392;-79
2021/10/19 09:38:25;;;;;;;6.15;5.53;;;;;;;;;;5093915;28;20356;-80
2021/10/19 09:40:53;;;;;;;5.53;4.40;;;;;;;;;;5093299;28;20494;-81
2021/10/19 09:43:32;;;;;;;5.32;4.82;;;;;;;;;;5091956;28;20078;-80
2021/10/19 09:46:00;;;;;;;8.20;5.50;;;;;;;;;;5086567;28;20031;-81
2021/10/19 09:48:31;;;;;;;6.65;5.50;;;;;;;;;;5092712;28;20032;-79
2021/10/19 09:50:57;;;;;;;6.10;4.80;;;;;;;;;;5093448;28;20071;-79
2021/10/19 09:53:25;;;;;;;13.00;5.70;;;;;;;;;;5093553;28;20016;-82
2021/10/19 09:55:52;;;;;;;7.93;5.40;;;;;;;;;;5093939;28;20028;-76
2021/10/19 09:58:19;;;;;;;6.57;4.90;;;;;;;;;;5091824;28;20050;-80
2021/10/19 10:00:45;;;;;;;6.03;4.60;;;;;;;;;;5093592;28;20028;-79
2021/10/19 10:03:12;;;;;;;6.55;4.80;;;;;;;;;;5093489;28;20031;-82
2021/10/19 10:05:38;;;;;;;7.10;5.20;;;;;;;;;;5092154;28;20024;-79
2021/10/19 10:08:05;;;;;;;5.53;4.75;;;;;;;;;;5088859;28;20024;-80
2021/10/19 10:10:34;;;;;;;9.43;4.90;;;;;;;;;;5083205;28;20386;-79
2021/10/19 10:13:00;;;;;;;11.60;7.68;;;;;;;;;;5071511;28;20434;-78
2021/10/19 10:15:32;;;;;;;8.30;5.68;;;;;;;;;;5088675;28;20517;-82
2021/10/19 10:18:01;;;;;;;6.35;5.03;;;;;;;;;;5091438;28;20810;-81
2021/10/19 10:20:54;;;;;;;7.18;5.25;;;;;;;;;;5091681;28;20073;-80
2021/10/19 10:23:29;;;;;;;7.40;5.20;;;;;;;;;;5090404;28;20105;-80
2021/10/19 10:25:57;;;;;;;6.43;5.25;;;;;;;;;;5072833;28;20025;-82
2021/10/19 10:28:29;;;;;;;15.48;6.05;;;;;;;;;;5080924;28;20028;-81
2021/10/19 10:30:56;;;;;;;6.82;5.85;;;;;;;;;;5092864;28;20028;-83
2021/10/19 10:33:38;;;;;;;8.43;6.15;;;;;;;;;;5093250;28;20024;-82
2021/10/19 10:36:20;;;;;;;11.25;7.28;;;;;;;;;;5092459;28;20028;-80
2021/10/19 10:39:07;;;;;;;8.93;6.35;;;;;;;;;;5092918;28;20062;-80
2021/10/19 10:41:48;;;;;;;7.10;6.40;;;;;;;;;;5089276;28;20542;-80
2021/10/19 10:44:22;;;;;;;11.50;9.90;;;;;;;;;;5071494;28;20070;-77
2021/10/19 10:46:48;;;;;;;7.27;6.20;;;;;;;;;;5077988;28;20067;-82
2021/10/19 10:49:18;;;;;;;7.00;6.30;;;;;;;;;;5094324;28;20032;-83
2021/10/19 10:51:47;;;;;;;7.38;6.18;;;;;;;;;;5092686;28;20107;-79
2021/10/19 10:54:28;;;;;;;10.02;8.40;;;;;;;;;;5092298;28;20020;-80
2021/10/19 10:57:00;;;;;;;8.13;7.32;;;;;;;;;;5090380;28;20020;-82
2021/10/19 10:59:33;;;;;;;7.47;6.70;;;;;;;;;;5082851;28;20102;-82
2021/10/19 11:02:20;;;;;;;8.52;7.07;;;;;;;;;;5092582;28;20092;-81
2021/10/19 11:04:54;;;;;;;8.13;7.18;;;;;;;;;;5091720;28;20104;-84
2021/10/19 11:07:20;;;;;;;;;;;;;;;;;;5080763;28;20476;-80
2021/10/19 11:09:46;;;;;;;7.35;6.65;;;;;;;;;;5072172;28;19930;-80
2021/10/19 11:12:19;;;;;;;9.70;6.68;;;;;;;;;;5072087;28;20032;-80
2021/10/19 11:14:45;;;;;;;7.95;6.15;;;;;;;;;;5072510;28;20108;-78
2021/10/19 11:17:11;;;;;;;11.00;8.25;;;;;;;;;;5071891;28;20017;-82
2021/10/19 11:19:37;;;;;;;9.88;8.73;;;;;;;;;;5071910;28;20056;-82
2021/10/19 11:22:08;;;;;;;12.20;7.68;;;;;;;;;;5072310;28;20056;-82
2021/10/19 11:24:35;;;;;;;8.68;7.30;;;;;;;;;;5072434;28;20099;-80
2021/10/19 11:27:02;;;;;;;10.27;8.88;;;;;;;;;;5072609;28;20104;-80
2021/10/19 11:29:28;;;;;;;11.48;8.18;;;;;;;;;;5072104;28;20036;-82
2021/10/19 11:31:55;;;;;;;9.07;6.80;;;;;;;;;;5081548;28;20018;-78
2021/10/19 11:34:21;;;;;;;6.85;5.88;;;;;;;;;;5083279;28;20046;-80
2021/10/19 11:36:49;;;;;;;8.18;6.05;;;;;;;;;;5092796;28;20471;-86
2021/10/19 11:39:16;;;;;;;6.47;5.50;;;;;;;;;;5091452;28;20521;-78
2021/10/19 11:41:52;;;;;;;6.57;5.88;;;;;;;;;;5091443;28;20068;-82
2021/10/19 11:44:20;;;;;;;8.65;6.95;;;;;;;;;;5092287;28;20031;-81
2021/10/19 11:46:46;;;;;;;7.35;6.55;;;;;;;;;;5092141;28;20081;-78
2021/10/19 11:49:14;;;;;;;7.70;6.13;;;;;;;;;;5091296;28;20027;-78
2021/10/19 11:51:44;;;;;;;7.72;6.72;;;;;;;;;;5092150;28;20028;-79
2021/10/19 11:54:11;;;;;;;8.02;7.22;;;;;;;;;;5091114;28;20217;-79
2021/10/19 11:56:37;;;;;;;8.50;6.93;;;;;;;;;;5091661;28;20028;-77
2021/10/19 11:59:06;;;;;;;8.23;7.05;;;;;;;;;;5090140;28;20016;-78
2021/10/19 12:01:49;;;;;;;8.13;7.13;;;;;;;;;;5092474;28;20154;-79
2021/10/19 12:04:15;;;;;;;8.30;6.82;;;;;;;;;;5088832;28;20032;-79
2021/10/19 12:06:44;;;;;;;8.88;7.10;;;;;;;;;;5085312;28;20391;-78
2021/10/19 12:09:21;;;;;;;12.65;8.55;;;;;;;;;;5090587;28;20110;-79
2021/10/19 12:11:54;;;;;;;8.10;7.22;;;;;;;;;;5093442;28;20389;-77
2021/10/19 12:14:39;;;;;;;9.75;7.10;;;;;;;;;;5096288;28;20111;-83
2021/10/19 12:17:05;;;;;;;;;;;;;;;;;;5096674;28;20020;-79
2021/10/19 12:19:36;;;;;;;7.75;7.03;;;;;;;;;;5096412;28;19982;-83
2021/10/19 12:25:11;;;;;;;7.85;7.07;;;;;;;;;;5094823;28;20061;-79
2021/10/19 12:27:48;;;;;;;;;;;;;;;;;;;;;
2021/10/19 12:30:34;;;;;;;9.05;7.50;;;;;;;;;;5087416;28;20040;-79
2021/10/19 12:33:17;;;;;;;7.82;7.03;;;;;;;;;;5094227;28;20109;-80
2021/10/19 12:36:09;;;;;;;7.95;6.88;;;;;;;;;;5095476;28;20036;-82
2021/10/19 12:39:01;;;;;;;9.10;7.28;;;;;;;;;;5088128;28;20374;-82
2021/10/19 12:41:59;;;;;;;10.55;8.00;;;;;;;;;;5083762;28;20298;-81
2021/10/19 12:44:30;;;;;;;9.93;8.10;;;;;;;;;;5092902;28;20024;-80
2021/10/19 12:53:18;;;;;;;8.82;7.88;;;;;;;;;;5049224;28;20495;-78
2021/10/19 12:55:49;;;;;;;7.47;6.72;;;;;;;;;;5092178;28;20020;-78
2021/10/19 12:58:23;;;;;;;12.60;8.70;;;;;;;;;;5093434;28;20024;-78
2021/10/19 13:00:49;;;;;;;24.27;19.88;;;;;;;;;;5090778;28;20028;-79
2021/10/19 13:03:15;;;;;;;9.32;7.65;;;;;;;;;;5093500;28;20060;-78
2021/10/19 13:05:43;;;;;;;39.60;11.07;;;;;;;;;;5091883;28;20028;-78
2021/10/19 13:08:09;;;;;;;10.85;7.68;;;;;;;;;;5093659;28;20036;-79
2021/10/19 13:10:35;;;;;;;7.40;6.70;;;;;;;;;;5095063;28;20028;-79
2021/10/19 13:13:01;;;;;;;8.85;7.82;;;;;;;;;;5094356;28;20020;-79
2021/10/19 13:15:27;;;;;;;8.35;7.45;;;;;;;;;;5095183;28;20046;-83
2021/10/19 13:17:54;;;;;;;10.23;9.20;;;;;;;;;;5095694;28;20111;-84
2021/10/19 13:20:20;;;;;;;10.18;8.30;;;;;;;;;;5094206;28;20035;-78
2021/10/19 13:22:51;;;;;;;7.93;6.95;;;;;;;;;;5094001;28;20027;-82
2021/10/19 13:25:17;;;;;;;8.00;6.75;;;;;;;;;;5094908;28;20103;-83
2021/10/19 13:27:43;;;;;;;8.57;7.10;;;;;;;;;;5095162;28;20028;-81
2021/10/19 13:30:10;;;;;;;18.75;7.97;;;;;;;;;;5094040;28;20070;-82
2021/10/19 13:32:36;;;;;;;9.65;6.57;;;;;;;;;;5094860;28;20053;-83
2021/10/19 13:35:02;;;;;;;8.13;6.55;;;;;;;;;;5094656;28;20088;-83
2021/10/19 13:37:30;;;;;;;9.95;6.97;;;;;;;;;;5095739;28;20024;-82
2021/10/19 13:39:58;;;;;;;8.10;7.22;;;;;;;;;;5094512;28;20028;-79
2021/10/19 13:42:24;;;;;;;7.70;6.82;;;;;;;;;;5095517;28;20051;-81
2021/10/19 13:44:50;;;;;;;7.43;6.72;;;;;;;;;;5094790;28;20027;-80
2021/10/19 13:47:19;;;;;;;11.80;8.98;;;;;;;;;;5094445;28;20023;-80
2021/10/19 13:49:47;;;;;;;10.25;8.60;;;;;;;;;;5092903;28;20020;-78
2021/10/19 13:52:16;;;;;;;9.80;8.77;;;;;;;;;;5094898;28;20017;-79
2021/10/19 13:54:42;;;;;;;9.52;7.70;;;;;;;;;;5094458;28;20035;-80
2021/10/19 13:57:11;;;;;;;8.15;7.35;;;;;;;;;;5094409;28;20107;-80
2021/10/19 13:59:40;;;;;;;8.57;7.45;;;;;;;;;;5093630;28;20471;-81
2021/10/19 14:02:07;;;;;;;8.15;7.20;;;;;;;;;;5094599;28;20054;-79
2021/10/19 14:04:33;;;;;;;11.40;10.00;;;;;;;;;;5093921;28;20111;-80
2021/10/19 14:07:00;;;;;;;8.90;8.00;;;;;;;;;;5094351;28;20020;-79
2021/10/19 14:09:28;;;;;;;10.32;8.63;;;;;;;;;;5093941;28;20055;-79
2021/10/19 14:11:56;;;;;;;11.93;10.57;;;;;;;;;;5094579;28;20364;-82
2021/10/19 14:14:25;;;;;;;39.35;34.67;;;;;;;;;;5094929;28;20051;-82
2021/10/19 14:16:51;;;;;;;25.42;21.98;;;;;;;;;;5095088;28;20027;-81
2021/10/19 14:19:17;;;;;;;23.73;21.10;;;;;;;;;;5095056;28;20047;-78
2021/10/19 14:21:44;;;;;;;13.90;12.50;;;;;;;;;;5095448;28;20024;-80
2021/10/19 14:24:10;;;;;;;27.60;24.65;;;;;;;;;;5094954;28;20079;-79
2021/10/19 14:26:37;;;;;;;12.25;11.05;;;;;;;;;;5095284;28;20031;-80
2021/10/19 14:29:04;;;;;;;10.02;9.02;;;;;;;;;;5094482;28;20016;-80
2021/10/19 14:31:32;;;;;;;9.52;8.57;;;;;;;;;;5094347;28;20027;-79
2021/10/19 14:34:01;;;;;;;11.23;9.32;;;;;;;;;;5093884;28;20460;-78
2021/10/19 14:36:27;;;;;;;16.40;14.23;;;;;;;;;;5093131;28;20461;-81
2021/10/19 14:38:56;;;;;;;11.75;10.68;;;;;;;;;;5094150;28;20077;-78
2021/10/19 14:44:14;;;;;;;12.82;11.48;;;;;;;;;;5094320;28;20036;-79
2021/10/19 14:47:10;;;;;;;11.95;9.68;;;;;;;;;;5094205;28;20028;-81
2021/10/19 14:50:04;;;;;;;;;;;;;;;;;;;;;
2021/10/19 14:53:00;;;;;;;;;;;;;;;;;;;;;
2021/10/19 14:58:15;;;;;;;21.73;17.83;;;;;;;;;;5069170;28;20024;-78
2021/10/19 15:00:41;;;;;;;24.20;21.27;;;;;;;;;;5093934;28;20047;-80
2021/10/19 15:03:07;;;;;;;20.98;18.67;;;;;;;;;;5093776;28;20368;-84
2021/10/19 15:05:41;;;;;;;21.08;18.83;;;;;;;;;;5093988;28;20053;-82
2021/10/19 15:08:07;;;;;;;19.80;17.57;;;;;;;;;;5093804;28;20028;-81
2021/10/19 15:10:45;;;;;;;25.98;21.38;;;;;;;;;;5093800;28;20028;-79
2021/10/19 15:13:14;;;;;;;28.20;24.38;;;;;;;;;;5093964;28;20024;-79
2021/10/19 15:15:42;;;;;;;25.33;21.58;;;;;;;;;;5093887;28;20020;-81
2021/10/19 15:18:16;;;;;;;24.27;21.63;;;;;;;;;;5093679;28;20178;-78
2021/10/19 15:20:56;;;;;;;22.80;20.55;;;;;;;;;;5094612;28;20023;-79
2021/10/19 15:23:53;;;;;;;27.48;24.58;;;;;;;;;;5094524;28;20032;-80
2021/10/19 15:26:41;;;;;;;27.13;24.20;;;;;;;;;;5085827;28;20610;-81
2021/10/19 15:29:07;;;;;;;25.25;20.85;;;;;;;;;;5093458;28;20056;-78
2021/10/19 15:31:34;;;;;;;41.47;35.95;;;;;;;;;;5093196;28;20062;-80
2021/10/19 15:34:00;;;;;;;33.38;29.38;;;;;;;;;;5093456;28;20020;-79
2021/10/19 15:36:27;;;;;;;29.45;25.98;;;;;;;;;;5093590;28;20028;-78
2021/10/19 15:38:53;;;;;;;25.13;21.83;;;;;;;;;;5093478;28;20035;-79
2021/10/19 15:41:22;;;;;;;26.98;23.02;;;;;;;;;;5093803;28;20043;-78
2021/10/19 15:43:48;;;;;;;27.25;23.38;;;;;;;;;;5093884;28;20077;-80
2021/10/19 15:46:16;;;;;;;29.25;24.30;;;;;;;;;;5092038;28;20390;-84
2021/10/19 15:48:45;;;;;;;32.10;27.35;;;;;;;;;;5091956;28;20028;-82
2021/10/19 15:51:12;;;;;;;27.90;24.90;;;;;;;;;;5093633;28;20064;-83
2021/10/19 15:53:41;;;;;;;28.27;24.67;;;;;;;;;;5092190;28;20054;-81
2021/10/19 15:56:07;;;;;;;37.75;29.23;;;;;;;;;;5088332;28;20027;-84
2021/10/19 16:01:19;;;;;;;39.20;30.85;;;;;;;;;;5072583;28;20080;-79
2021/10/19 16:03:48;;;;;;;58.80;48.92;;;;;;;;;;5071098;28;20060;-79
2021/10/19 16:06:14;;;;;;;59.20;43.28;;;;;;;;;;5072413;28;20025;-83
2021/10/19 16:08:43;;;;;;;48.80;35.13;;;;;;;;;;5072330;28;20483;-79
2021/10/19 16:11:09;;;;;;;48.90;34.35;;;;;;;;;;5072452;28;20029;-80
2021/10/19 16:13:37;;;;;;;49.03;33.78;;;;;;;;;;5072469;28;20070;-80
2021/10/19 16:16:04;;;;;;;42.10;29.23;;;;;;;;;;5072195;28;20013;-81
2021/10/19 16:18:30;;;;;;;58.65;38.38;;;;;;;;;;5072129;28;20049;-79
2021/10/19 16:20:56;;;;;;;83.60;54.15;;;;;;;;;;5072271;28;20439;-80
2021/10/19 16:23:29;;;;;;;78.03;48.33;;;;;;;;;;5071248;28;20036;-81
2021/10/19 16:25:56;;;;;;;135.27;97.72;;;;;;;;;;5071714;28;20024;-79
2021/10/19 16:28:23;;;;;;;49.13;37.58;;;;;;;;;;5072368;28;20391;-81
2021/10/19 16:30:49;;;;;;;30.77;26.25;;;;;;;;;;5071957;28;20044;-78
2021/10/19 16:33:18;;;;;;;27.15;22.25;;;;;;;;;;5072392;28;20387;-78
2021/10/19 16:35:46;;;;;;;28.10;25.05;;;;;;;;;;5072104;28;20383;-80
2021/10/19 16:38:12;;;;;;;31.40;27.75;;;;;;;;;;5072178;28;20029;-79
2021/10/19 16:40:39;;;;;;;35.50;31.42;;;;;;;;;;5071970;28;20025;-82